sensor_id;sensor_type;location;lat;lon;timestamp;P1;durP1;ratioP1;P2;durP2;ratioP2
51981;SDS011;37998;53.416;6.730;2023-02-24T00:01:40;4.85;;;1.65;;
51981;SDS011;37998;53.416;6.730;2023-02-24T00:04:13;7.47;;;2.10;;
51981;SDS011;37998;53.416;6.730;2023-02-24T00:06:39;6.88;;;1.70;;
51981;SDS011;37998;53.416;6.730;2023-02-24T00:09:17;8.52;;;1.73;;
51981;SDS011;37998;53.416;6.730;2023-02-24T00:11:51;7.53;;;1.80;;
51981;SDS011;37998;53.416;6.730;2023-02-24T00:14:19;8.82;;;1.80;;
51981;SDS011;37998;53.416;6.730;2023-02-24T00:16:45;9.93;;;2.63;;
51981;SDS011;37998;53.416;6.730;2023-02-24T00:19:12;7.97;;;2.00;;
51981;SDS011;37998;53.416;6.730;2023-02-24T00:21:40;6.32;;;1.95;;
51981;SDS011;37998;53.416;6.730;2023-02-24T00:24:07;8.75;;;2.65;;
51981;SDS011;37998;53.416;6.730;2023-02-24T00:26:33;16.35;;;3.35;;
51981;SDS011;37998;53.416;6.730;2023-02-24T00:28:58;9.40;;;1.85;;
51981;SDS011;37998;53.416;6.730;2023-02-24T00:31:27;11.93;;;2.45;;
51981;SDS011;37998;53.416;6.730;2023-02-24T00:33:58;7.28;;;2.00;;
51981;SDS011;37998;53.416;6.730;2023-02-24T00:36:25;8.65;;;2.00;;
51981;SDS011;37998;53.416;6.730;2023-02-24T00:38:56;11.18;;;2.92;;
51981;SDS011;37998;53.416;6.730;2023-02-24T00:41:26;10.25;;;2.22;;
51981;SDS011;37998;53.416;6.730;2023-02-24T00:43:56;13.10;;;1.65;;
51981;SDS011;37998;53.416;6.730;2023-02-24T00:46:33;11.60;;;2.00;;
51981;SDS011;37998;53.416;6.730;2023-02-24T00:49:01;10.45;;;2.08;;
51981;SDS011;37998;53.416;6.730;2023-02-24T00:51:35;8.85;;;2.10;;
51981;SDS011;37998;53.416;6.730;2023-02-24T00:54:02;10.05;;;2.25;;
51981;SDS011;37998;53.416;6.730;2023-02-24T00:56:28;8.70;;;2.00;;
51981;SDS011;37998;53.416;6.730;2023-02-24T00:58:55;6.28;;;1.85;;
51981;SDS011;37998;53.416;6.730;2023-02-24T01:01:26;8.55;;;2.00;;
51981;SDS011;37998;53.416;6.730;2023-02-24T01:03:58;10.23;;;1.73;;
51981;SDS011;37998;53.416;6.730;2023-02-24T01:06:29;8.73;;;2.25;;
51981;SDS011;37998;53.416;6.730;2023-02-24T01:08:56;7.70;;;2.35;;
51981;SDS011;37998;53.416;6.730;2023-02-24T01:11:24;8.43;;;1.75;;
51981;SDS011;37998;53.416;6.730;2023-02-24T01:14:15;9.77;;;2.10;;
51981;SDS011;37998;53.416;6.730;2023-02-24T01:16:44;8.35;;;2.20;;
51981;SDS011;37998;53.416;6.730;2023-02-24T01:19:14;6.75;;;2.72;;
51981;SDS011;37998;53.416;6.730;2023-02-24T01:22:01;9.95;;;2.30;;
51981;SDS011;37998;53.416;6.730;2023-02-24T01:24:32;10.25;;;2.83;;
51981;SDS011;37998;53.416;6.730;2023-02-24T01:27:00;9.98;;;2.42;;
51981;SDS011;37998;53.416;6.730;2023-02-24T01:29:26;6.70;;;2.05;;
51981;SDS011;37998;53.416;6.730;2023-02-24T01:31:52;4.35;;;2.20;;
51981;SDS011;37998;53.416;6.730;2023-02-24T01:34:21;8.85;;;2.13;;
51981;SDS011;37998;53.416;6.730;2023-02-24T01:36:48;8.25;;;2.50;;
51981;SDS011;37998;53.416;6.730;2023-02-24T01:39:14;7.55;;;2.15;;
51981;SDS011;37998;53.416;6.730;2023-02-24T01:41:41;12.30;;;2.70;;
51981;SDS011;37998;53.416;6.730;2023-02-24T01:46:46;7.25;;;2.45;;
51981;SDS011;37998;53.416;6.730;2023-02-24T01:52:19;6.60;;;2.28;;
51981;SDS011;37998;53.416;6.730;2023-02-24T01:54:50;9.32;;;2.42;;
51981;SDS011;37998;53.416;6.730;2023-02-24T01:57:19;7.35;;;1.95;;
51981;SDS011;37998;53.416;6.730;2023-02-24T01:59:48;9.23;;;2.47;;
51981;SDS011;37998;53.416;6.730;2023-02-24T02:02:18;7.45;;;2.00;;
51981;SDS011;37998;53.416;6.730;2023-02-24T02:04:56;10.90;;;2.15;;
51981;SDS011;37998;53.416;6.730;2023-02-24T02:07:27;11.55;;;2.00;;
51981;SDS011;37998;53.416;6.730;2023-02-24T02:09:54;7.10;;;2.08;;
51981;SDS011;37998;53.416;6.730;2023-02-24T02:12:24;5.53;;;1.85;;
51981;SDS011;37998;53.416;6.730;2023-02-24T02:14:52;6.38;;;1.90;;
51981;SDS011;37998;53.416;6.730;2023-02-24T02:44:47;7.75;;;2.35;;
51981;SDS011;37998;53.416;6.730;2023-02-24T02:49:53;8.93;;;2.38;;
51981;SDS011;37998;53.416;6.730;2023-02-24T02:55:01;7.28;;;2.00;;
51981;SDS011;37998;53.416;6.730;2023-02-24T02:57:36;8.00;;;2.10;;
51981;SDS011;37998;53.416;6.730;2023-02-24T03:00:08;4.40;;;1.85;;
51981;SDS011;37998;53.416;6.730;2023-02-24T03:02:47;5.30;;;1.67;;
51981;SDS011;37998;53.416;6.730;2023-02-24T03:05:16;5.50;;;1.80;;
51981;SDS011;37998;53.416;6.730;2023-02-24T03:07:48;9.85;;;1.85;;
51981;SDS011;37998;53.416;6.730;2023-02-24T03:10:22;10.55;;;2.00;;
51981;SDS011;37998;53.416;6.730;2023-02-24T03:12:53;9.20;;;1.98;;
51981;SDS011;37998;53.416;6.730;2023-02-24T03:15:22;9.18;;;2.33;;
51981;SDS011;37998;53.416;6.730;2023-02-24T03:18:08;9.13;;;2.15;;
51981;SDS011;37998;53.416;6.730;2023-02-24T03:20:49;9.15;;;2.00;;
51981;SDS011;37998;53.416;6.730;2023-02-24T03:23:21;7.78;;;2.30;;
51981;SDS011;37998;53.416;6.730;2023-02-24T03:26:03;9.05;;;2.20;;
51981;SDS011;37998;53.416;6.730;2023-02-24T03:31:35;5.32;;;1.90;;
51981;SDS011;37998;53.416;6.730;2023-02-24T03:34:13;14.48;;;2.65;;
51981;SDS011;37998;53.416;6.730;2023-02-24T03:37:01;7.45;;;2.22;;
51981;SDS011;37998;53.416;6.730;2023-02-24T03:39:27;11.48;;;2.63;;
51981;SDS011;37998;53.416;6.730;2023-02-24T03:44:20;10.65;;;2.35;;
51981;SDS011;37998;53.416;6.730;2023-02-24T03:46:48;11.90;;;2.25;;
51981;SDS011;37998;53.416;6.730;2023-02-24T03:49:15;7.95;;;1.83;;
51981;SDS011;37998;53.416;6.730;2023-02-24T03:59:49;7.05;;;2.17;;
51981;SDS011;37998;53.416;6.730;2023-02-24T04:03:05;9.63;;;2.20;;
51981;SDS011;37998;53.416;6.730;2023-02-24T04:05:43;12.15;;;2.63;;
51981;SDS011;37998;53.416;6.730;2023-02-24T04:08:25;12.20;;;2.47;;
51981;SDS011;37998;53.416;6.730;2023-02-24T04:11:01;11.88;;;2.88;;
51981;SDS011;37998;53.416;6.730;2023-02-24T04:19:01;8.10;;;2.00;;
51981;SDS011;37998;53.416;6.730;2023-02-24T04:21:31;9.15;;;2.13;;
51981;SDS011;37998;53.416;6.730;2023-02-24T04:23:58;10.57;;;2.85;;
51981;SDS011;37998;53.416;6.730;2023-02-24T04:26:30;4.88;;;2.30;;
51981;SDS011;37998;53.416;6.730;2023-02-24T04:28:57;13.05;;;3.95;;
51981;SDS011;37998;53.416;6.730;2023-02-24T04:31:23;9.30;;;2.65;;
51981;SDS011;37998;53.416;6.730;2023-02-24T04:33:51;12.60;;;2.25;;
51981;SDS011;37998;53.416;6.730;2023-02-24T04:36:20;9.88;;;2.35;;
51981;SDS011;37998;53.416;6.730;2023-02-24T04:38:46;11.35;;;2.53;;
51981;SDS011;37998;53.416;6.730;2023-02-24T04:41:13;12.73;;;2.92;;
51981;SDS011;37998;53.416;6.730;2023-02-24T04:46:12;7.75;;;2.33;;
51981;SDS011;37998;53.416;6.730;2023-02-24T04:48:38;8.23;;;2.92;;
51981;SDS011;37998;53.416;6.730;2023-02-24T04:51:04;17.13;;;2.67;;
51981;SDS011;37998;53.416;6.730;2023-02-24T04:53:30;9.50;;;2.40;;
51981;SDS011;37998;53.416;6.730;2023-02-24T04:56:00;12.25;;;2.40;;
51981;SDS011;37998;53.416;6.730;2023-02-24T04:58:32;15.90;;;3.28;;
51981;SDS011;37998;53.416;6.730;2023-02-24T05:00:59;9.85;;;2.25;;
51981;SDS011;37998;53.416;6.730;2023-02-24T05:03:25;18.40;;;3.35;;
51981;SDS011;37998;53.416;6.730;2023-02-24T05:05:55;10.02;;;2.38;;
51981;SDS011;37998;53.416;6.730;2023-02-24T05:08:24;13.20;;;2.30;;
51981;SDS011;37998;53.416;6.730;2023-02-24T05:10:51;4.78;;;2.10;;
51981;SDS011;37998;53.416;6.730;2023-02-24T05:13:19;10.02;;;2.85;;
51981;SDS011;37998;53.416;6.730;2023-02-24T05:15:51;9.18;;;2.55;;
51981;SDS011;37998;53.416;6.730;2023-02-24T05:18:17;16.83;;;3.05;;
51981;SDS011;37998;53.416;6.730;2023-02-24T05:20:48;8.35;;;2.30;;
51981;SDS011;37998;53.416;6.730;2023-02-24T05:23:43;10.75;;;2.65;;
51981;SDS011;37998;53.416;6.730;2023-02-24T05:26:14;16.05;;;2.80;;
51981;SDS011;37998;53.416;6.730;2023-02-24T05:28:42;10.00;;;2.67;;
51981;SDS011;37998;53.416;6.730;2023-02-24T05:31:12;7.70;;;2.58;;
51981;SDS011;37998;53.416;6.730;2023-02-24T05:33:39;20.13;;;3.80;;
51981;SDS011;37998;53.416;6.730;2023-02-24T05:36:08;10.93;;;2.92;;
51981;SDS011;37998;53.416;6.730;2023-02-24T05:38:39;9.40;;;2.50;;
51981;SDS011;37998;53.416;6.730;2023-02-24T05:41:12;17.83;;;3.00;;
51981;SDS011;37998;53.416;6.730;2023-02-24T05:43:50;12.93;;;2.90;;
51981;SDS011;37998;53.416;6.730;2023-02-24T05:48:52;12.20;;;2.70;;
51981;SDS011;37998;53.416;6.730;2023-02-24T05:51:21;8.30;;;2.63;;
51981;SDS011;37998;53.416;6.730;2023-02-24T05:53:51;14.13;;;3.75;;
51981;SDS011;37998;53.416;6.730;2023-02-24T05:56:20;9.45;;;2.53;;
51981;SDS011;37998;53.416;6.730;2023-02-24T05:58:47;11.48;;;3.10;;
51981;SDS011;37998;53.416;6.730;2023-02-24T06:01:14;15.52;;;4.15;;
51981;SDS011;37998;53.416;6.730;2023-02-24T06:03:44;10.15;;;2.95;;
51981;SDS011;37998;53.416;6.730;2023-02-24T06:06:14;21.00;;;3.30;;
51981;SDS011;37998;53.416;6.730;2023-02-24T06:08:41;20.25;;;3.20;;
51981;SDS011;37998;53.416;6.730;2023-02-24T06:11:13;14.53;;;3.23;;
51981;SDS011;37998;53.416;6.730;2023-02-24T06:13:43;14.73;;;3.10;;
51981;SDS011;37998;53.416;6.730;2023-02-24T06:16:13;9.52;;;2.92;;
51981;SDS011;37998;53.416;6.730;2023-02-24T06:18:40;15.23;;;3.53;;
51981;SDS011;37998;53.416;6.730;2023-02-24T06:21:07;14.02;;;3.30;;
51981;SDS011;37998;53.416;6.730;2023-02-24T06:23:33;12.35;;;3.20;;
51981;SDS011;37998;53.416;6.730;2023-02-24T06:26:02;15.60;;;3.97;;
51981;SDS011;37998;53.416;6.730;2023-02-24T06:28:29;14.77;;;4.32;;
51981;SDS011;37998;53.416;6.730;2023-02-24T06:30:55;21.08;;;4.22;;
51981;SDS011;37998;53.416;6.730;2023-02-24T06:33:21;17.05;;;3.97;;
51981;SDS011;37998;53.416;6.730;2023-02-24T06:35:50;12.45;;;3.63;;
51981;SDS011;37998;53.416;6.730;2023-02-24T06:38:17;13.20;;;3.90;;
51981;SDS011;37998;53.416;6.730;2023-02-24T06:40:43;15.48;;;3.90;;
51981;SDS011;37998;53.416;6.730;2023-02-24T06:43:11;19.98;;;4.65;;
51981;SDS011;37998;53.416;6.730;2023-02-24T06:45:37;15.13;;;3.78;;
51981;SDS011;37998;53.416;6.730;2023-02-24T06:48:02;19.48;;;4.35;;
51981;SDS011;37998;53.416;6.730;2023-02-24T06:50:28;21.75;;;5.10;;
51981;SDS011;37998;53.416;6.730;2023-02-24T06:52:55;16.60;;;4.88;;
51981;SDS011;37998;53.416;6.730;2023-02-24T06:55:25;20.95;;;5.00;;
51981;SDS011;37998;53.416;6.730;2023-02-24T06:57:55;10.55;;;4.82;;
51981;SDS011;37998;53.416;6.730;2023-02-24T07:00:32;13.00;;;4.90;;
51981;SDS011;37998;53.416;6.730;2023-02-24T07:03:05;17.92;;;5.60;;
51981;SDS011;37998;53.416;6.730;2023-02-24T07:05:44;21.77;;;5.68;;
51981;SDS011;37998;53.416;6.730;2023-02-24T07:08:18;16.00;;;4.95;;
51981;SDS011;37998;53.416;6.730;2023-02-24T07:10:53;25.83;;;6.30;;
51981;SDS011;37998;53.416;6.730;2023-02-24T07:13:24;15.02;;;6.00;;
51981;SDS011;37998;53.416;6.730;2023-02-24T07:15:52;19.98;;;5.97;;
51981;SDS011;37998;53.416;6.730;2023-02-24T07:18:18;19.08;;;5.68;;
51981;SDS011;37998;53.416;6.730;2023-02-24T07:20:44;26.25;;;6.22;;
51981;SDS011;37998;53.416;6.730;2023-02-24T07:23:14;22.42;;;5.95;;
51981;SDS011;37998;53.416;6.730;2023-02-24T07:25:41;14.85;;;5.78;;
51981;SDS011;37998;53.416;6.730;2023-02-24T07:28:08;25.25;;;6.20;;
51981;SDS011;37998;53.416;6.730;2023-02-24T07:30:35;20.92;;;6.10;;
51981;SDS011;37998;53.416;6.730;2023-02-24T07:33:03;21.42;;;6.90;;
51981;SDS011;37998;53.416;6.730;2023-02-24T07:35:29;18.38;;;5.90;;
51981;SDS011;37998;53.416;6.730;2023-02-24T07:37:55;18.90;;;5.60;;
51981;SDS011;37998;53.416;6.730;2023-02-24T07:40:26;23.00;;;6.75;;
51981;SDS011;37998;53.416;6.730;2023-02-24T07:42:53;20.13;;;6.10;;
51981;SDS011;37998;53.416;6.730;2023-02-24T07:45:19;21.08;;;5.85;;
51981;SDS011;37998;53.416;6.730;2023-02-24T07:47:44;19.58;;;6.03;;
51981;SDS011;37998;53.416;6.730;2023-02-24T07:50:10;20.70;;;6.72;;
51981;SDS011;37998;53.416;6.730;2023-02-24T07:52:45;15.02;;;5.82;;
51981;SDS011;37998;53.416;6.730;2023-02-24T07:55:15;20.08;;;5.70;;
51981;SDS011;37998;53.416;6.730;2023-02-24T07:57:41;16.55;;;6.13;;
51981;SDS011;37998;53.416;6.730;2023-02-24T08:00:11;19.27;;;5.60;;
51981;SDS011;37998;53.416;6.730;2023-02-24T08:02:45;17.73;;;5.32;;
51981;SDS011;37998;53.416;6.730;2023-02-24T08:05:12;20.65;;;5.63;;
51981;SDS011;37998;53.416;6.730;2023-02-24T08:07:39;20.05;;;6.13;;
51981;SDS011;37998;53.416;6.730;2023-02-24T08:10:06;13.55;;;5.18;;
51981;SDS011;37998;53.416;6.730;2023-02-24T08:12:48;21.92;;;6.10;;
51981;SDS011;37998;53.416;6.730;2023-02-24T08:15:19;15.10;;;4.63;;
51981;SDS011;37998;53.416;6.730;2023-02-24T08:17:50;19.92;;;6.03;;
51981;SDS011;37998;53.416;6.730;2023-02-24T08:20:18;12.45;;;5.28;;
51981;SDS011;37998;53.416;6.730;2023-02-24T08:22:44;15.38;;;5.35;;
51981;SDS011;37998;53.416;6.730;2023-02-24T08:25:16;15.15;;;4.90;;
51981;SDS011;37998;53.416;6.730;2023-02-24T08:27:44;15.52;;;5.35;;
51981;SDS011;37998;53.416;6.730;2023-02-24T08:30:12;12.15;;;4.45;;
51981;SDS011;37998;53.416;6.730;2023-02-24T08:32:54;12.20;;;4.90;;
51981;SDS011;37998;53.416;6.730;2023-02-24T08:35:30;16.90;;;5.78;;
51981;SDS011;37998;53.416;6.730;2023-02-24T08:38:07;9.90;;;4.80;;
51981;SDS011;37998;53.416;6.730;2023-02-24T08:40:38;20.17;;;5.72;;
51981;SDS011;37998;53.416;6.730;2023-02-24T08:45:44;15.95;;;5.60;;
51981;SDS011;37998;53.416;6.730;2023-02-24T08:48:15;12.23;;;5.60;;
51981;SDS011;37998;53.416;6.730;2023-02-24T08:51:04;14.80;;;5.03;;
51981;SDS011;37998;53.416;6.730;2023-02-24T08:53:40;11.77;;;4.47;;
51981;SDS011;37998;53.416;6.730;2023-02-24T08:56:08;12.80;;;5.15;;
51981;SDS011;37998;53.416;6.730;2023-02-24T08:58:39;13.70;;;5.07;;
51981;SDS011;37998;53.416;6.730;2023-02-24T09:01:15;9.07;;;4.50;;
51981;SDS011;37998;53.416;6.730;2023-02-24T09:03:46;13.13;;;5.05;;
51981;SDS011;37998;53.416;6.730;2023-02-24T09:06:15;15.13;;;4.55;;
51981;SDS011;37998;53.416;6.730;2023-02-24T09:08:50;11.13;;;4.60;;
51981;SDS011;37998;53.416;6.730;2023-02-24T09:11:37;17.70;;;5.82;;
51981;SDS011;37998;53.416;6.730;2023-02-24T09:14:09;15.60;;;4.00;;
51981;SDS011;37998;53.416;6.730;2023-02-24T09:16:47;15.57;;;4.20;;
51981;SDS011;37998;53.416;6.730;2023-02-24T09:19:36;13.50;;;4.20;;
51981;SDS011;37998;53.416;6.730;2023-02-24T09:22:28;13.93;;;4.00;;
51981;SDS011;37998;53.416;6.730;2023-02-24T09:25:02;15.77;;;3.80;;
51981;SDS011;37998;53.416;6.730;2023-02-24T09:30:26;15.65;;;3.80;;
51981;SDS011;37998;53.416;6.730;2023-02-24T09:36:18;17.20;;;4.05;;
51981;SDS011;37998;53.416;6.730;2023-02-24T09:38:52;25.40;;;4.72;;
51981;SDS011;37998;53.416;6.730;2023-02-24T09:41:35;24.98;;;4.65;;
51981;SDS011;37998;53.416;6.730;2023-02-24T09:44:34;36.20;;;5.28;;
51981;SDS011;37998;53.416;6.730;2023-02-24T09:47:16;37.10;;;6.90;;
51981;SDS011;37998;53.416;6.730;2023-02-24T09:49:59;28.42;;;5.32;;
51981;SDS011;37998;53.416;6.730;2023-02-24T09:52:38;34.83;;;5.93;;
51981;SDS011;37998;53.416;6.730;2023-02-24T09:55:49;44.83;;;6.68;;
51981;SDS011;37998;53.416;6.730;2023-02-24T10:06:12;20.00;;;4.88;;
51981;SDS011;37998;53.416;6.730;2023-02-24T10:08:57;17.73;;;3.60;;
51981;SDS011;37998;53.416;6.730;2023-02-24T10:11:36;21.25;;;4.35;;
51981;SDS011;37998;53.416;6.730;2023-02-24T10:14:17;25.85;;;4.53;;
51981;SDS011;37998;53.416;6.730;2023-02-24T10:16:47;22.73;;;5.10;;
51981;SDS011;37998;53.416;6.730;2023-02-24T10:19:35;30.52;;;6.28;;
51981;SDS011;37998;53.416;6.730;2023-02-24T10:24:53;29.77;;;5.30;;
51981;SDS011;37998;53.416;6.730;2023-02-24T10:35:22;27.75;;;5.95;;
51981;SDS011;37998;53.416;6.730;2023-02-24T10:37:50;34.20;;;6.40;;
51981;SDS011;37998;53.416;6.730;2023-02-24T10:40:17;29.50;;;6.00;;
51981;SDS011;37998;53.416;6.730;2023-02-24T10:43:08;43.05;;;6.78;;
51981;SDS011;37998;53.416;6.730;2023-02-24T10:45:42;33.67;;;6.32;;
51981;SDS011;37998;53.416;6.730;2023-02-24T10:48:22;36.15;;;6.45;;
51981;SDS011;37998;53.416;6.730;2023-02-24T10:50:49;40.28;;;7.68;;
51981;SDS011;37998;53.416;6.730;2023-02-24T10:53:19;37.45;;;6.72;;
51981;SDS011;37998;53.416;6.730;2023-02-24T10:56:08;36.20;;;7.65;;
51981;SDS011;37998;53.416;6.730;2023-02-24T10:59:01;38.70;;;7.80;;
51981;SDS011;37998;53.416;6.730;2023-02-24T11:01:52;34.42;;;6.95;;
51981;SDS011;37998;53.416;6.730;2023-02-24T11:05:04;32.95;;;6.75;;
51981;SDS011;37998;53.416;6.730;2023-02-24T11:08:03;42.65;;;6.65;;
51981;SDS011;37998;53.416;6.730;2023-02-24T11:10:31;29.00;;;5.85;;
51981;SDS011;37998;53.416;6.730;2023-02-24T11:13:17;22.85;;;5.50;;
51981;SDS011;37998;53.416;6.730;2023-02-24T11:16:02;20.42;;;5.03;;
51981;SDS011;37998;53.416;6.730;2023-02-24T11:18:47;36.40;;;6.60;;
51981;SDS011;37998;53.416;6.730;2023-02-24T11:21:14;34.67;;;7.03;;
51981;SDS011;37998;53.416;6.730;2023-02-24T11:23:43;43.55;;;7.82;;
51981;SDS011;37998;53.416;6.730;2023-02-24T11:26:13;35.42;;;7.03;;
51981;SDS011;37998;53.416;6.730;2023-02-24T11:28:58;44.70;;;7.57;;
51981;SDS011;37998;53.416;6.730;2023-02-24T11:40:20;33.17;;;6.28;;
51981;SDS011;37998;53.416;6.730;2023-02-24T11:43:04;20.52;;;4.25;;
51981;SDS011;37998;53.416;6.730;2023-02-24T11:48:23;14.38;;;3.75;;
51981;SDS011;37998;53.416;6.730;2023-02-24T11:50:52;23.38;;;4.78;;
51981;SDS011;37998;53.416;6.730;2023-02-24T11:53:30;19.15;;;4.05;;
51981;SDS011;37998;53.416;6.730;2023-02-24T11:56:02;19.55;;;4.60;;
51981;SDS011;37998;53.416;6.730;2023-02-24T11:58:30;28.48;;;4.30;;
51981;SDS011;37998;53.416;6.730;2023-02-24T12:01:25;25.08;;;5.75;;
51981;SDS011;37998;53.416;6.730;2023-02-24T12:04:00;17.60;;;4.57;;
51981;SDS011;37998;53.416;6.730;2023-02-24T12:06:42;21.88;;;4.72;;
51981;SDS011;37998;53.416;6.730;2023-02-24T12:09:20;29.17;;;5.32;;
51981;SDS011;37998;53.416;6.730;2023-02-24T12:11:52;23.85;;;4.50;;
51981;SDS011;37998;53.416;6.730;2023-02-24T12:17:17;24.58;;;4.75;;
51981;SDS011;37998;53.416;6.730;2023-02-24T12:19:50;33.35;;;5.57;;
51981;SDS011;37998;53.416;6.730;2023-02-24T12:22:25;26.98;;;4.80;;
51981;SDS011;37998;53.416;6.730;2023-02-24T12:24:56;19.70;;;2.65;;
51981;SDS011;37998;53.416;6.730;2023-02-24T12:33:06;11.05;;;2.45;;
51981;SDS011;37998;53.416;6.730;2023-02-24T12:38:30;9.65;;;1.80;;
51981;SDS011;37998;53.416;6.730;2023-02-24T12:41:16;10.70;;;2.10;;
51981;SDS011;37998;53.416;6.730;2023-02-24T12:44:08;8.85;;;2.60;;
51981;SDS011;37998;53.416;6.730;2023-02-24T12:47:10;9.50;;;2.40;;
51981;SDS011;37998;53.416;6.730;2023-02-24T12:49:53;11.63;;;2.63;;
51981;SDS011;37998;53.416;6.730;2023-02-24T12:52:48;12.82;;;2.70;;
51981;SDS011;37998;53.416;6.730;2023-02-24T12:55:33;9.23;;;2.10;;
51981;SDS011;37998;53.416;6.730;2023-02-24T12:58:11;11.10;;;2.22;;
51981;SDS011;37998;53.416;6.730;2023-02-24T13:06:03;12.18;;;2.67;;
51981;SDS011;37998;53.416;6.730;2023-02-24T13:16:32;11.93;;;2.20;;
51981;SDS011;37998;53.416;6.730;2023-02-24T13:19:03;11.10;;;2.38;;
51981;SDS011;37998;53.416;6.730;2023-02-24T13:22:00;13.10;;;2.70;;
51981;SDS011;37998;53.416;6.730;2023-02-24T13:24:40;20.13;;;3.42;;
51981;SDS011;37998;53.416;6.730;2023-02-24T13:27:26;16.67;;;3.38;;
51981;SDS011;37998;53.416;6.730;2023-02-24T13:32:45;14.85;;;3.20;;
51981;SDS011;37998;53.416;6.730;2023-02-24T13:37:49;22.50;;;4.10;;
51981;SDS011;37998;53.416;6.730;2023-02-24T13:45:22;19.45;;;3.80;;
51981;SDS011;37998;53.416;6.730;2023-02-24T13:56:34;20.45;;;3.42;;
51981;SDS011;37998;53.416;6.730;2023-02-24T14:02:09;24.25;;;4.10;;
51981;SDS011;37998;53.416;6.730;2023-02-24T14:04:50;24.58;;;4.95;;
51981;SDS011;37998;53.416;6.730;2023-02-24T14:07:22;17.23;;;4.30;;
51981;SDS011;37998;53.416;6.730;2023-02-24T14:09:57;24.30;;;4.93;;
51981;SDS011;37998;53.416;6.730;2023-02-24T14:12:30;3.22;;;0.95;;
51981;SDS011;37998;53.416;6.730;2023-02-24T14:14:59;4.60;;;1.30;;
51981;SDS011;37998;53.416;6.730;2023-02-24T14:17:31;7.60;;;1.50;;
51981;SDS011;37998;53.416;6.730;2023-02-24T14:22:43;12.23;;;2.50;;
51981;SDS011;37998;53.416;6.730;2023-02-24T14:25:10;14.27;;;3.00;;
51981;SDS011;37998;53.416;6.730;2023-02-24T14:27:37;16.77;;;2.90;;
51981;SDS011;37998;53.416;6.730;2023-02-24T14:30:04;17.08;;;3.05;;
51981;SDS011;37998;53.416;6.730;2023-02-24T14:32:31;30.70;;;5.35;;
51981;SDS011;37998;53.416;6.730;2023-02-24T14:34:58;20.85;;;5.50;;
51981;SDS011;37998;53.416;6.730;2023-02-24T14:37:25;21.40;;;4.65;;
51981;SDS011;37998;53.416;6.730;2023-02-24T14:39:57;22.60;;;5.00;;
51981;SDS011;37998;53.416;6.730;2023-02-24T14:42:25;18.77;;;4.03;;
51981;SDS011;37998;53.416;6.730;2023-02-24T14:47:20;26.20;;;5.57;;
51981;SDS011;37998;53.416;6.730;2023-02-24T14:52:36;14.88;;;3.88;;
51981;SDS011;37998;53.416;6.730;2023-02-24T14:55:14;20.38;;;4.50;;
51981;SDS011;37998;53.416;6.730;2023-02-24T15:00:14;27.35;;;4.50;;
51981;SDS011;37998;53.416;6.730;2023-02-24T15:02:43;23.58;;;4.70;;
51981;SDS011;37998;53.416;6.730;2023-02-24T15:05:12;10.90;;;2.90;;
51981;SDS011;37998;53.416;6.730;2023-02-24T15:07:38;9.55;;;2.83;;
51981;SDS011;37998;53.416;6.730;2023-02-24T15:10:16;16.40;;;3.20;;
51981;SDS011;37998;53.416;6.730;2023-02-24T15:12:46;13.10;;;3.10;;
51981;SDS011;37998;53.416;6.730;2023-02-24T15:15:25;14.43;;;3.50;;
51981;SDS011;37998;53.416;6.730;2023-02-24T15:17:58;21.17;;;3.75;;
51981;SDS011;37998;53.416;6.730;2023-02-24T15:20:32;10.75;;;2.70;;
51981;SDS011;37998;53.416;6.730;2023-02-24T15:23:03;17.45;;;3.35;;
51981;SDS011;37998;53.416;6.730;2023-02-24T15:25:40;19.02;;;4.10;;
51981;SDS011;37998;53.416;6.730;2023-02-24T15:28:20;23.85;;;4.40;;
51981;SDS011;37998;53.416;6.730;2023-02-24T15:33:38;21.25;;;4.72;;
51981;SDS011;37998;53.416;6.730;2023-02-24T15:36:08;26.10;;;4.95;;
51981;SDS011;37998;53.416;6.730;2023-02-24T15:38:42;22.30;;;4.50;;
51981;SDS011;37998;53.416;6.730;2023-02-24T15:41:09;28.20;;;4.65;;
51981;SDS011;37998;53.416;6.730;2023-02-24T15:43:44;22.90;;;4.32;;
51981;SDS011;37998;53.416;6.730;2023-02-24T15:46:15;12.65;;;3.38;;
51981;SDS011;37998;53.416;6.730;2023-02-24T15:48:53;16.02;;;4.35;;
51981;SDS011;37998;53.416;6.730;2023-02-24T15:53:59;14.05;;;3.55;;
51981;SDS011;37998;53.416;6.730;2023-02-24T15:56:26;20.48;;;4.05;;
51981;SDS011;37998;53.416;6.730;2023-02-24T15:58:52;20.92;;;4.68;;
51981;SDS011;37998;53.416;6.730;2023-02-24T16:01:18;21.50;;;4.25;;
51981;SDS011;37998;53.416;6.730;2023-02-24T16:03:44;20.08;;;4.38;;
51981;SDS011;37998;53.416;6.730;2023-02-24T16:06:19;21.48;;;4.28;;
51981;SDS011;37998;53.416;6.730;2023-02-24T16:08:46;25.23;;;5.85;;
51981;SDS011;37998;53.416;6.730;2023-02-24T16:11:14;23.77;;;5.10;;
51981;SDS011;37998;53.416;6.730;2023-02-24T16:13:44;21.83;;;4.15;;
51981;SDS011;37998;53.416;6.730;2023-02-24T16:16:15;11.13;;;3.20;;
51981;SDS011;37998;53.416;6.730;2023-02-24T16:18:42;18.83;;;4.10;;
51981;SDS011;37998;53.416;6.730;2023-02-24T16:21:08;22.35;;;4.32;;
51981;SDS011;37998;53.416;6.730;2023-02-24T16:23:34;20.77;;;4.00;;
51981;SDS011;37998;53.416;6.730;2023-02-24T16:26:04;25.00;;;4.55;;
51981;SDS011;37998;53.416;6.730;2023-02-24T16:28:32;27.15;;;5.47;;
51981;SDS011;37998;53.416;6.730;2023-02-24T16:30:58;21.98;;;4.75;;
51981;SDS011;37998;53.416;6.730;2023-02-24T16:33:23;30.13;;;6.95;;
51981;SDS011;37998;53.416;6.730;2023-02-24T16:35:49;22.70;;;4.90;;
51981;SDS011;37998;53.416;6.730;2023-02-24T16:38:19;21.38;;;5.95;;
51981;SDS011;37998;53.416;6.730;2023-02-24T16:40:47;25.75;;;5.03;;
51981;SDS011;37998;53.416;6.730;2023-02-24T16:43:13;34.20;;;7.60;;
51981;SDS011;37998;53.416;6.730;2023-02-24T16:45:40;23.63;;;4.68;;
51981;SDS011;37998;53.416;6.730;2023-02-24T16:48:25;28.63;;;6.00;;
51981;SDS011;37998;53.416;6.730;2023-02-24T16:50:52;23.92;;;5.30;;
51981;SDS011;37998;53.416;6.730;2023-02-24T16:53:20;21.13;;;5.57;;
51981;SDS011;37998;53.416;6.730;2023-02-24T16:55:47;17.77;;;5.70;;
51981;SDS011;37998;53.416;6.730;2023-02-24T16:58:14;16.55;;;4.50;;
51981;SDS011;37998;53.416;6.730;2023-02-24T17:00:41;19.88;;;4.82;;
51981;SDS011;37998;53.416;6.730;2023-02-24T17:03:14;24.38;;;4.93;;
51981;SDS011;37998;53.416;6.730;2023-02-24T17:05:43;30.52;;;4.95;;
51981;SDS011;37998;53.416;6.730;2023-02-24T17:08:09;25.45;;;5.05;;
51981;SDS011;37998;53.416;6.730;2023-02-24T17:10:35;24.50;;;5.03;;
51981;SDS011;37998;53.416;6.730;2023-02-24T17:13:04;26.10;;;5.45;;
51981;SDS011;37998;53.416;6.730;2023-02-24T17:15:30;28.50;;;5.50;;
51981;SDS011;37998;53.416;6.730;2023-02-24T17:17:56;25.40;;;5.78;;
51981;SDS011;37998;53.416;6.730;2023-02-24T17:20:22;32.08;;;5.55;;
51981;SDS011;37998;53.416;6.730;2023-02-24T17:22:48;28.85;;;5.90;;
51981;SDS011;37998;53.416;6.730;2023-02-24T17:25:18;32.65;;;6.13;;
51981;SDS011;37998;53.416;6.730;2023-02-24T17:27:47;30.83;;;5.03;;
51981;SDS011;37998;53.416;6.730;2023-02-24T17:30:14;18.88;;;4.65;;
51981;SDS011;37998;53.416;6.730;2023-02-24T17:32:43;26.27;;;5.10;;
51981;SDS011;37998;53.416;6.730;2023-02-24T17:35:09;15.77;;;3.92;;
51981;SDS011;37998;53.416;6.730;2023-02-24T17:37:35;18.77;;;5.47;;
51981;SDS011;37998;53.416;6.730;2023-02-24T17:40:01;18.92;;;4.10;;
51981;SDS011;37998;53.416;6.730;2023-02-24T17:42:27;18.90;;;4.05;;
51981;SDS011;37998;53.416;6.730;2023-02-24T17:44:52;19.05;;;4.65;;
51981;SDS011;37998;53.416;6.730;2023-02-24T17:47:18;25.77;;;4.72;;
51981;SDS011;37998;53.416;6.730;2023-02-24T17:49:44;19.70;;;3.85;;
51981;SDS011;37998;53.416;6.730;2023-02-24T17:52:09;18.10;;;4.75;;